sensor_id;sensor_type;location;lat;lon;timestamp;P1;durP1;ratioP1;P2;durP2;ratioP2
23802;SDS011;12082;51.786;6.018;2023-08-20T00:00:15;28.70;;;26.27;;
23802;SDS011;12082;51.786;6.018;2023-08-20T00:02:42;30.63;;;28.50;;
23802;SDS011;12082;51.786;6.018;2023-08-20T00:05:08;31.47;;;29.40;;
23802;SDS011;12082;51.786;6.018;2023-08-20T00:07:34;33.50;;;30.80;;
23802;SDS011;12082;51.786;6.018;2023-08-20T00:10:00;33.33;;;30.67;;
23802;SDS011;12082;51.786;6.018;2023-08-20T00:12:29;36.80;;;33.43;;
23802;SDS011;12082;51.786;6.018;2023-08-20T00:14:55;41.00;;;38.27;;
23802;SDS011;12082;51.786;6.018;2023-08-20T00:17:32;36.87;;;34.47;;
23802;SDS011;12082;51.786;6.018;2023-08-20T00:19:59;38.60;;;35.77;;
23802;SDS011;12082;51.786;6.018;2023-08-20T00:22:25;39.37;;;36.17;;
23802;SDS011;12082;51.786;6.018;2023-08-20T00:24:52;38.57;;;35.77;;
23802;SDS011;12082;51.786;6.018;2023-08-20T00:27:18;37.63;;;34.77;;
23802;SDS011;12082;51.786;6.018;2023-08-20T00:29:44;34.37;;;31.77;;
23802;SDS011;12082;51.786;6.018;2023-08-20T00:32:10;32.63;;;30.07;;
23802;SDS011;12082;51.786;6.018;2023-08-20T00:34:35;33.63;;;31.20;;
23802;SDS011;12082;51.786;6.018;2023-08-20T00:37:01;34.00;;;31.60;;
23802;SDS011;12082;51.786;6.018;2023-08-20T00:39:28;34.90;;;32.13;;
23802;SDS011;12082;51.786;6.018;2023-08-20T00:41:54;33.07;;;30.40;;
23802;SDS011;12082;51.786;6.018;2023-08-20T00:44:20;33.37;;;31.27;;
23802;SDS011;12082;51.786;6.018;2023-08-20T00:46:45;32.03;;;29.57;;
23802;SDS011;12082;51.786;6.018;2023-08-20T00:49:11;31.17;;;28.73;;
23802;SDS011;12082;51.786;6.018;2023-08-20T00:51:37;30.63;;;27.97;;
23802;SDS011;12082;51.786;6.018;2023-08-20T00:54:03;33.03;;;30.30;;
23802;SDS011;12082;51.786;6.018;2023-08-20T00:56:30;32.93;;;30.17;;
23802;SDS011;12082;51.786;6.018;2023-08-20T00:58:55;32.87;;;30.57;;
23802;SDS011;12082;51.786;6.018;2023-08-20T01:01:21;33.97;;;30.70;;
23802;SDS011;12082;51.786;6.018;2023-08-20T01:03:47;35.17;;;32.33;;
23802;SDS011;12082;51.786;6.018;2023-08-20T01:08:45;34.67;;;32.00;;
23802;SDS011;12082;51.786;6.018;2023-08-20T01:11:16;34.10;;;31.73;;
23802;SDS011;12082;51.786;6.018;2023-08-20T01:13:43;31.43;;;29.17;;
23802;SDS011;12082;51.786;6.018;2023-08-20T01:16:08;32.20;;;29.43;;
23802;SDS011;12082;51.786;6.018;2023-08-20T01:18:34;31.97;;;30.17;;
23802;SDS011;12082;51.786;6.018;2023-08-20T01:21:04;32.80;;;30.70;;
23802;SDS011;12082;51.786;6.018;2023-08-20T01:23:42;36.57;;;33.80;;
23802;SDS011;12082;51.786;6.018;2023-08-20T01:28:56;36.83;;;33.87;;
23802;SDS011;12082;51.786;6.018;2023-08-20T01:31:22;42.63;;;38.70;;
23802;SDS011;12082;51.786;6.018;2023-08-20T01:33:48;43.10;;;39.57;;
23802;SDS011;12082;51.786;6.018;2023-08-20T01:36:14;43.00;;;39.50;;
23802;SDS011;12082;51.786;6.018;2023-08-20T01:38:42;44.87;;;41.40;;
23802;SDS011;12082;51.786;6.018;2023-08-20T01:41:07;40.20;;;36.77;;
23802;SDS011;12082;51.786;6.018;2023-08-20T01:43:33;42.57;;;38.63;;
23802;SDS011;12082;51.786;6.018;2023-08-20T01:45:59;44.10;;;40.40;;
23802;SDS011;12082;51.786;6.018;2023-08-20T01:48:24;42.27;;;38.13;;
23802;SDS011;12082;51.786;6.018;2023-08-20T01:50:50;43.30;;;39.80;;
23802;SDS011;12082;51.786;6.018;2023-08-20T01:53:16;47.57;;;42.23;;
23802;SDS011;12082;51.786;6.018;2023-08-20T01:55:41;41.90;;;38.30;;
23802;SDS011;12082;51.786;6.018;2023-08-20T01:58:07;43.80;;;39.50;;
23802;SDS011;12082;51.786;6.018;2023-08-20T02:00:32;35.67;;;32.27;;
23802;SDS011;12082;51.786;6.018;2023-08-20T02:02:58;34.03;;;30.53;;
23802;SDS011;12082;51.786;6.018;2023-08-20T02:05:24;33.80;;;30.13;;
23802;SDS011;12082;51.786;6.018;2023-08-20T02:07:50;33.90;;;30.30;;
23802;SDS011;12082;51.786;6.018;2023-08-20T02:10:15;32.70;;;29.20;;
23802;SDS011;12082;51.786;6.018;2023-08-20T02:12:41;31.17;;;27.83;;
23802;SDS011;12082;51.786;6.018;2023-08-20T02:15:07;31.47;;;26.90;;
23802;SDS011;12082;51.786;6.018;2023-08-20T02:17:33;24.63;;;22.53;;
23802;SDS011;12082;51.786;6.018;2023-08-20T02:20:00;32.20;;;26.50;;
23802;SDS011;12082;51.786;6.018;2023-08-20T02:22:28;28.43;;;25.20;;
23802;SDS011;12082;51.786;6.018;2023-08-20T02:24:54;27.60;;;25.23;;
23802;SDS011;12082;51.786;6.018;2023-08-20T02:27:20;24.43;;;22.07;;
23802;SDS011;12082;51.786;6.018;2023-08-20T02:29:45;28.03;;;25.37;;
23802;SDS011;12082;51.786;6.018;2023-08-20T02:32:11;26.93;;;24.27;;
23802;SDS011;12082;51.786;6.018;2023-08-20T02:34:36;29.10;;;26.23;;
23802;SDS011;12082;51.786;6.018;2023-08-20T02:37:02;28.20;;;25.50;;
23802;SDS011;12082;51.786;6.018;2023-08-20T02:39:27;28.87;;;24.50;;
23802;SDS011;12082;51.786;6.018;2023-08-20T02:41:53;27.63;;;24.50;;
23802;SDS011;12082;51.786;6.018;2023-08-20T02:44:18;24.20;;;21.90;;
23802;SDS011;12082;51.786;6.018;2023-08-20T02:46:44;23.13;;;21.13;;
23802;SDS011;12082;51.786;6.018;2023-08-20T02:49:10;24.60;;;22.37;;
23802;SDS011;12082;51.786;6.018;2023-08-20T02:51:35;24.00;;;21.63;;
23802;SDS011;12082;51.786;6.018;2023-08-20T02:54:01;22.83;;;20.67;;
23802;SDS011;12082;51.786;6.018;2023-08-20T02:56:27;25.27;;;22.63;;
23802;SDS011;12082;51.786;6.018;2023-08-20T02:58:52;23.97;;;21.83;;
23802;SDS011;12082;51.786;6.018;2023-08-20T03:01:21;24.53;;;21.23;;
23802;SDS011;12082;51.786;6.018;2023-08-20T03:03:48;24.73;;;22.33;;
23802;SDS011;12082;51.786;6.018;2023-08-20T03:06:13;25.10;;;22.53;;
23802;SDS011;12082;51.786;6.018;2023-08-20T03:08:39;26.80;;;22.27;;
23802;SDS011;12082;51.786;6.018;2023-08-20T03:11:05;25.10;;;23.03;;
23802;SDS011;12082;51.786;6.018;2023-08-20T03:13:30;26.20;;;23.60;;
23802;SDS011;12082;51.786;6.018;2023-08-20T03:15:56;24.83;;;22.53;;
23802;SDS011;12082;51.786;6.018;2023-08-20T03:18:21;23.30;;;21.60;;
23802;SDS011;12082;51.786;6.018;2023-08-20T03:20:47;24.07;;;21.77;;
23802;SDS011;12082;51.786;6.018;2023-08-20T03:23:12;26.60;;;24.17;;
23802;SDS011;12082;51.786;6.018;2023-08-20T03:25:38;26.90;;;24.20;;
23802;SDS011;12082;51.786;6.018;2023-08-20T03:28:04;26.93;;;24.17;;
23802;SDS011;12082;51.786;6.018;2023-08-20T03:30:30;26.23;;;24.13;;
23802;SDS011;12082;51.786;6.018;2023-08-20T03:32:56;29.70;;;27.20;;
23802;SDS011;12082;51.786;6.018;2023-08-20T03:35:22;27.50;;;24.77;;
23802;SDS011;12082;51.786;6.018;2023-08-20T03:37:48;26.97;;;24.97;;
23802;SDS011;12082;51.786;6.018;2023-08-20T03:40:13;25.47;;;23.77;;
23802;SDS011;12082;51.786;6.018;2023-08-20T03:42:39;25.03;;;22.93;;
23802;SDS011;12082;51.786;6.018;2023-08-20T03:45:05;27.50;;;25.40;;
23802;SDS011;12082;51.786;6.018;2023-08-20T03:47:31;28.83;;;26.70;;
23802;SDS011;12082;51.786;6.018;2023-08-20T03:49:56;25.43;;;23.63;;
23802;SDS011;12082;51.786;6.018;2023-08-20T03:52:22;27.60;;;24.93;;
23802;SDS011;12082;51.786;6.018;2023-08-20T03:54:47;31.50;;;28.93;;
23802;SDS011;12082;51.786;6.018;2023-08-20T03:57:13;29.40;;;26.97;;
23802;SDS011;12082;51.786;6.018;2023-08-20T03:59:39;33.50;;;30.27;;
23802;SDS011;12082;51.786;6.018;2023-08-20T04:02:04;34.00;;;30.47;;
23802;SDS011;12082;51.786;6.018;2023-08-20T04:04:30;29.97;;;27.10;;
23802;SDS011;12082;51.786;6.018;2023-08-20T04:06:56;30.57;;;27.93;;
23802;SDS011;12082;51.786;6.018;2023-08-20T04:09:22;31.73;;;29.00;;
23802;SDS011;12082;51.786;6.018;2023-08-20T04:11:47;32.80;;;29.57;;
23802;SDS011;12082;51.786;6.018;2023-08-20T04:14:13;31.73;;;29.33;;
23802;SDS011;12082;51.786;6.018;2023-08-20T04:16:38;30.93;;;28.63;;
23802;SDS011;12082;51.786;6.018;2023-08-20T04:19:04;29.23;;;26.83;;
23802;SDS011;12082;51.786;6.018;2023-08-20T04:21:29;32.43;;;29.67;;
23802;SDS011;12082;51.786;6.018;2023-08-20T04:23:55;34.30;;;31.53;;
23802;SDS011;12082;51.786;6.018;2023-08-20T04:26:20;27.33;;;25.33;;
23802;SDS011;12082;51.786;6.018;2023-08-20T04:28:46;29.63;;;27.47;;
23802;SDS011;12082;51.786;6.018;2023-08-20T04:31:11;30.60;;;28.70;;
23802;SDS011;12082;51.786;6.018;2023-08-20T04:33:37;27.20;;;25.50;;
23802;SDS011;12082;51.786;6.018;2023-08-20T04:36:03;33.40;;;30.83;;
23802;SDS011;12082;51.786;6.018;2023-08-20T04:38:28;30.00;;;28.10;;
23802;SDS011;12082;51.786;6.018;2023-08-20T04:40:54;32.53;;;30.57;;
23802;SDS011;12082;51.786;6.018;2023-08-20T04:43:19;29.47;;;27.60;;
23802;SDS011;12082;51.786;6.018;2023-08-20T04:45:45;34.23;;;31.83;;
23802;SDS011;12082;51.786;6.018;2023-08-20T04:48:10;33.93;;;31.53;;
23802;SDS011;12082;51.786;6.018;2023-08-20T04:50:36;34.97;;;32.60;;
23802;SDS011;12082;51.786;6.018;2023-08-20T04:53:01;34.90;;;32.53;;
23802;SDS011;12082;51.786;6.018;2023-08-20T04:55:27;34.13;;;31.43;;
23802;SDS011;12082;51.786;6.018;2023-08-20T04:57:53;33.37;;;31.00;;
23802;SDS011;12082;51.786;6.018;2023-08-20T05:00:19;34.97;;;32.40;;
23802;SDS011;12082;51.786;6.018;2023-08-20T05:02:46;35.73;;;33.20;;
23802;SDS011;12082;51.786;6.018;2023-08-20T05:05:11;32.47;;;30.17;;
23802;SDS011;12082;51.786;6.018;2023-08-20T05:07:37;32.90;;;30.90;;
23802;SDS011;12082;51.786;6.018;2023-08-20T05:10:02;35.17;;;32.70;;
23802;SDS011;12082;51.786;6.018;2023-08-20T05:12:28;31.93;;;29.77;;
23802;SDS011;12082;51.786;6.018;2023-08-20T05:14:54;31.00;;;29.23;;
23802;SDS011;12082;51.786;6.018;2023-08-20T05:17:19;32.03;;;30.13;;
23802;SDS011;12082;51.786;6.018;2023-08-20T05:19:45;32.13;;;29.93;;
23802;SDS011;12082;51.786;6.018;2023-08-20T05:22:11;34.37;;;32.00;;
23802;SDS011;12082;51.786;6.018;2023-08-20T05:24:37;35.33;;;32.83;;
23802;SDS011;12082;51.786;6.018;2023-08-20T05:27:13;30.83;;;28.83;;
23802;SDS011;12082;51.786;6.018;2023-08-20T05:29:39;34.77;;;32.03;;
23802;SDS011;12082;51.786;6.018;2023-08-20T05:32:05;33.33;;;30.67;;
23802;SDS011;12082;51.786;6.018;2023-08-20T05:34:31;34.03;;;31.80;;
23802;SDS011;12082;51.786;6.018;2023-08-20T05:36:57;33.33;;;31.23;;
23802;SDS011;12082;51.786;6.018;2023-08-20T05:39:22;33.83;;;31.20;;
23802;SDS011;12082;51.786;6.018;2023-08-20T05:41:48;34.20;;;31.77;;
23802;SDS011;12082;51.786;6.018;2023-08-20T05:44:14;30.83;;;28.73;;
23802;SDS011;12082;51.786;6.018;2023-08-20T05:46:39;32.63;;;30.43;;
23802;SDS011;12082;51.786;6.018;2023-08-20T05:49:05;30.37;;;28.27;;
23802;SDS011;12082;51.786;6.018;2023-08-20T05:51:31;35.13;;;32.97;;
23802;SDS011;12082;51.786;6.018;2023-08-20T05:53:57;32.93;;;30.83;;
23802;SDS011;12082;51.786;6.018;2023-08-20T05:56:22;33.47;;;30.80;;
23802;SDS011;12082;51.786;6.018;2023-08-20T05:58:48;32.67;;;30.10;;
23802;SDS011;12082;51.786;6.018;2023-08-20T06:01:13;31.50;;;29.23;;
23802;SDS011;12082;51.786;6.018;2023-08-20T06:03:39;32.30;;;29.80;;
23802;SDS011;12082;51.786;6.018;2023-08-20T06:06:04;32.50;;;29.53;;
23802;SDS011;12082;51.786;6.018;2023-08-20T06:08:30;37.17;;;34.23;;
23802;SDS011;12082;51.786;6.018;2023-08-20T06:10:55;39.67;;;36.33;;
23802;SDS011;12082;51.786;6.018;2023-08-20T06:13:21;40.83;;;37.50;;
23802;SDS011;12082;51.786;6.018;2023-08-20T06:15:46;36.07;;;32.83;;
23802;SDS011;12082;51.786;6.018;2023-08-20T06:18:12;24.80;;;22.50;;
23802;SDS011;12082;51.786;6.018;2023-08-20T06:20:37;20.23;;;18.10;;
23802;SDS011;12082;51.786;6.018;2023-08-20T06:23:03;16.87;;;14.80;;
23802;SDS011;12082;51.786;6.018;2023-08-20T06:25:29;12.63;;;10.13;;
23802;SDS011;12082;51.786;6.018;2023-08-20T06:27:54;10.00;;;8.97;;
23802;SDS011;12082;51.786;6.018;2023-08-20T06:30:20;8.60;;;7.80;;
23802;SDS011;12082;51.786;6.018;2023-08-20T06:32:46;8.40;;;7.57;;
23802;SDS011;12082;51.786;6.018;2023-08-20T06:35:11;7.97;;;7.20;;
23802;SDS011;12082;51.786;6.018;2023-08-20T06:37:38;7.70;;;6.63;;
23802;SDS011;12082;51.786;6.018;2023-08-20T06:40:05;8.80;;;6.97;;
23802;SDS011;12082;51.786;6.018;2023-08-20T06:42:32;8.47;;;7.73;;
23802;SDS011;12082;51.786;6.018;2023-08-20T06:44:57;11.83;;;8.13;;
23802;SDS011;12082;51.786;6.018;2023-08-20T06:47:23;9.70;;;7.93;;
23802;SDS011;12082;51.786;6.018;2023-08-20T06:49:49;7.50;;;6.80;;
23802;SDS011;12082;51.786;6.018;2023-08-20T06:52:15;8.97;;;6.30;;
23802;SDS011;12082;51.786;6.018;2023-08-20T06:54:40;8.30;;;7.33;;
23802;SDS011;12082;51.786;6.018;2023-08-20T06:57:06;8.30;;;7.13;;
23802;SDS011;12082;51.786;6.018;2023-08-20T06:59:32;10.07;;;7.50;;
23802;SDS011;12082;51.786;6.018;2023-08-20T07:01:57;9.57;;;7.50;;
23802;SDS011;12082;51.786;6.018;2023-08-20T07:04:23;10.13;;;7.93;;
23802;SDS011;12082;51.786;6.018;2023-08-20T07:06:48;7.47;;;6.77;;
23802;SDS011;12082;51.786;6.018;2023-08-20T07:09:15;9.90;;;6.93;;
23802;SDS011;12082;51.786;6.018;2023-08-20T07:11:41;7.17;;;6.47;;
23802;SDS011;12082;51.786;6.018;2023-08-20T07:14:06;10.90;;;7.20;;
23802;SDS011;12082;51.786;6.018;2023-08-20T07:16:32;10.70;;;6.47;;
23802;SDS011;12082;51.786;6.018;2023-08-20T07:18:57;8.77;;;7.57;;
23802;SDS011;12082;51.786;6.018;2023-08-20T07:21:23;7.17;;;6.50;;
23802;SDS011;12082;51.786;6.018;2023-08-20T07:23:48;12.20;;;7.67;;
23802;SDS011;12082;51.786;6.018;2023-08-20T07:26:14;10.10;;;7.70;;
23802;SDS011;12082;51.786;6.018;2023-08-20T07:28:40;10.90;;;6.33;;
23802;SDS011;12082;51.786;6.018;2023-08-20T07:31:21;7.23;;;5.40;;
23802;SDS011;12082;51.786;6.018;2023-08-20T07:33:48;9.50;;;6.13;;
23802;SDS011;12082;51.786;6.018;2023-08-20T07:36:14;8.20;;;5.87;;
23802;SDS011;12082;51.786;6.018;2023-08-20T07:38:40;6.27;;;5.70;;
23802;SDS011;12082;51.786;6.018;2023-08-20T07:41:07;8.53;;;5.90;;
23802;SDS011;12082;51.786;6.018;2023-08-20T07:43:33;6.65;;;5.10;;
23802;SDS011;12082;51.786;6.018;2023-08-20T07:45:59;11.07;;;5.70;;
23802;SDS011;12082;51.786;6.018;2023-08-20T07:48:24;11.53;;;5.50;;
23802;SDS011;12082;51.786;6.018;2023-08-20T07:50:50;5.97;;;4.82;;
23802;SDS011;12082;51.786;6.018;2023-08-20T07:53:16;9.95;;;6.30;;
23802;SDS011;12082;51.786;6.018;2023-08-20T07:55:41;8.93;;;5.97;;
23802;SDS011;12082;51.786;6.018;2023-08-20T07:58:07;11.73;;;6.15;;
23802;SDS011;12082;51.786;6.018;2023-08-20T08:00:32;10.30;;;6.20;;
23802;SDS011;12082;51.786;6.018;2023-08-20T08:02:58;7.72;;;5.88;;
23802;SDS011;12082;51.786;6.018;2023-08-20T08:05:23;8.50;;;6.68;;
23802;SDS011;12082;51.786;6.018;2023-08-20T08:07:49;14.15;;;8.30;;
23802;SDS011;12082;51.786;6.018;2023-08-20T08:10:15;8.20;;;5.90;;
23802;SDS011;12082;51.786;6.018;2023-08-20T08:12:40;18.05;;;7.65;;
23802;SDS011;12082;51.786;6.018;2023-08-20T08:15:06;9.57;;;7.55;;
23802;SDS011;12082;51.786;6.018;2023-08-20T08:17:31;9.02;;;6.45;;
23802;SDS011;12082;51.786;6.018;2023-08-20T08:19:57;6.88;;;5.88;;
23802;SDS011;12082;51.786;6.018;2023-08-20T08:22:23;15.25;;;6.90;;
23802;SDS011;12082;51.786;6.018;2023-08-20T08:24:49;9.38;;;6.78;;
23802;SDS011;12082;51.786;6.018;2023-08-20T08:27:14;13.43;;;7.22;;
23802;SDS011;12082;51.786;6.018;2023-08-20T08:29:40;8.82;;;6.15;;
23802;SDS011;12082;51.786;6.018;2023-08-20T08:32:05;9.02;;;7.05;;
23802;SDS011;12082;51.786;6.018;2023-08-20T08:34:31;8.25;;;6.13;;
23802;SDS011;12082;51.786;6.018;2023-08-20T08:36:56;7.78;;;6.47;;
23802;SDS011;12082;51.786;6.018;2023-08-20T08:39:22;9.55;;;7.03;;
23802;SDS011;12082;51.786;6.018;2023-08-20T08:41:51;6.20;;;5.57;;
23802;SDS011;12082;51.786;6.018;2023-08-20T08:44:21;6.20;;;5.50;;
23802;SDS011;12082;51.786;6.018;2023-08-20T08:46:46;8.35;;;6.25;;
23802;SDS011;12082;51.786;6.018;2023-08-20T08:49:15;7.63;;;6.47;;
23802;SDS011;12082;51.786;6.018;2023-08-20T08:51:42;10.27;;;5.90;;
23802;SDS011;12082;51.786;6.018;2023-08-20T08:54:09;10.88;;;6.50;;
23802;SDS011;12082;51.786;6.018;2023-08-20T08:56:35;7.43;;;6.60;;
23802;SDS011;12082;51.786;6.018;2023-08-20T08:59:01;8.97;;;5.93;;
23802;SDS011;12082;51.786;6.018;2023-08-20T09:01:28;6.87;;;6.13;;
23802;SDS011;12082;51.786;6.018;2023-08-20T09:03:53;7.83;;;6.57;;
23802;SDS011;12082;51.786;6.018;2023-08-20T09:06:19;7.77;;;6.83;;
23802;SDS011;12082;51.786;6.018;2023-08-20T09:08:45;8.73;;;8.03;;
23802;SDS011;12082;51.786;6.018;2023-08-20T09:11:10;16.50;;;8.87;;
23802;SDS011;12082;51.786;6.018;2023-08-20T09:13:37;12.80;;;8.50;;
23802;SDS011;12082;51.786;6.018;2023-08-20T09:16:04;8.57;;;7.67;;
23802;SDS011;12082;51.786;6.018;2023-08-20T09:18:31;12.40;;;7.77;;
23802;SDS011;12082;51.786;6.018;2023-08-20T09:20:57;11.00;;;7.57;;
23802;SDS011;12082;51.786;6.018;2023-08-20T09:23:26;8.93;;;7.17;;
23802;SDS011;12082;51.786;6.018;2023-08-20T09:25:53;14.70;;;8.43;;
23802;SDS011;12082;51.786;6.018;2023-08-20T09:28:19;11.40;;;10.27;;
23802;SDS011;12082;51.786;6.018;2023-08-20T09:30:55;12.73;;;10.37;;
23802;SDS011;12082;51.786;6.018;2023-08-20T09:33:21;10.83;;;9.73;;
23802;SDS011;12082;51.786;6.018;2023-08-20T09:35:50;9.40;;;8.50;;
23802;SDS011;12082;51.786;6.018;2023-08-20T09:38:20;9.27;;;8.40;;
23802;SDS011;12082;51.786;6.018;2023-08-20T09:40:50;10.00;;;9.20;;
23802;SDS011;12082;51.786;6.018;2023-08-20T09:43:17;10.93;;;9.23;;
23802;SDS011;12082;51.786;6.018;2023-08-20T09:45:44;10.57;;;9.50;;
23802;SDS011;12082;51.786;6.018;2023-08-20T09:48:12;9.87;;;9.17;;
23802;SDS011;12082;51.786;6.018;2023-08-20T09:50:43;10.07;;;9.17;;
23802;SDS011;12082;51.786;6.018;2023-08-20T09:53:18;10.17;;;9.13;;
23802;SDS011;12082;51.786;6.018;2023-08-20T09:56:09;9.23;;;8.43;;
23802;SDS011;12082;51.786;6.018;2023-08-20T09:58:40;9.70;;;8.83;;
23802;SDS011;12082;51.786;6.018;2023-08-20T10:01:06;12.03;;;8.43;;
23802;SDS011;12082;51.786;6.018;2023-08-20T10:03:32;11.17;;;10.17;;
23802;SDS011;12082;51.786;6.018;2023-08-20T10:05:58;9.83;;;8.93;;
23802;SDS011;12082;51.786;6.018;2023-08-20T10:08:26;9.57;;;8.50;;
23802;SDS011;12082;51.786;6.018;2023-08-20T10:10:52;9.87;;;8.97;;
23802;SDS011;12082;51.786;6.018;2023-08-20T10:13:17;9.80;;;8.97;;
23802;SDS011;12082;51.786;6.018;2023-08-20T10:15:43;9.63;;;8.83;;
23802;SDS011;12082;51.786;6.018;2023-08-20T10:18:10;10.87;;;9.77;;
23802;SDS011;12082;51.786;6.018;2023-08-20T10:20:36;9.33;;;8.57;;
23802;SDS011;12082;51.786;6.018;2023-08-20T10:23:05;13.73;;;9.03;;
23802;SDS011;12082;51.786;6.018;2023-08-20T10:25:30;10.30;;;9.37;;
23802;SDS011;12082;51.786;6.018;2023-08-20T10:28:12;10.23;;;9.33;;
23802;SDS011;12082;51.786;6.018;2023-08-20T10:30:39;10.63;;;9.90;;
23802;SDS011;12082;51.786;6.018;2023-08-20T10:33:28;10.23;;;9.33;;
23802;SDS011;12082;51.786;6.018;2023-08-20T10:35:53;9.03;;;8.30;;
23802;SDS011;12082;51.786;6.018;2023-08-20T10:38:19;9.73;;;8.93;;
23802;SDS011;12082;51.786;6.018;2023-08-20T10:40:51;10.83;;;10.00;;
23802;SDS011;12082;51.786;6.018;2023-08-20T10:43:28;9.80;;;9.00;;
23802;SDS011;12082;51.786;6.018;2023-08-20T10:46:14;10.33;;;9.50;;
23802;SDS011;12082;51.786;6.018;2023-08-20T10:48:44;8.60;;;8.20;;
23802;SDS011;12082;51.786;6.018;2023-08-20T10:56:45;11.03;;;10.10;;
23802;SDS011;12082;51.786;6.018;2023-08-20T10:59:13;8.37;;;7.63;;
23802;SDS011;12082;51.786;6.018;2023-08-20T11:01:45;8.90;;;8.40;;
23802;SDS011;12082;51.786;6.018;2023-08-20T11:04:12;12.10;;;8.67;;
23802;SDS011;12082;51.786;6.018;2023-08-20T11:06:40;9.70;;;8.80;;
23802;SDS011;12082;51.786;6.018;2023-08-20T11:09:06;7.73;;;7.07;;
23802;SDS011;12082;51.786;6.018;2023-08-20T11:11:32;8.13;;;7.47;;
23802;SDS011;12082;51.786;6.018;2023-08-20T11:14:04;10.17;;;9.57;;
23802;SDS011;12082;51.786;6.018;2023-08-20T11:16:31;8.97;;;8.23;;
23802;SDS011;12082;51.786;6.018;2023-08-20T11:18:57;8.50;;;8.00;;
23802;SDS011;12082;51.786;6.018;2023-08-20T11:21:23;9.47;;;8.67;;
23802;SDS011;12082;51.786;6.018;2023-08-20T11:23:48;8.27;;;7.57;;
23802;SDS011;12082;51.786;6.018;2023-08-20T11:26:14;7.77;;;7.30;;
23802;SDS011;12082;51.786;6.018;2023-08-20T11:28:44;8.33;;;7.53;;
23802;SDS011;12082;51.786;6.018;2023-08-20T11:31:11;7.70;;;7.00;;
23802;SDS011;12082;51.786;6.018;2023-08-20T11:33:37;7.73;;;7.23;;
23802;SDS011;12082;51.786;6.018;2023-08-20T11:36:04;9.07;;;8.40;;
23802;SDS011;12082;51.786;6.018;2023-08-20T11:38:30;8.93;;;8.03;;
23802;SDS011;12082;51.786;6.018;2023-08-20T11:40:57;8.43;;;7.93;;
23802;SDS011;12082;51.786;6.018;2023-08-20T11:43:24;8.40;;;7.87;;
23802;SDS011;12082;51.786;6.018;2023-08-20T11:45:53;8.37;;;7.77;;
23802;SDS011;12082;51.786;6.018;2023-08-20T11:48:19;8.80;;;8.23;;
23802;SDS011;12082;51.786;6.018;2023-08-20T11:50:46;8.63;;;8.03;;
23802;SDS011;12082;51.786;6.018;2023-08-20T11:53:12;8.40;;;7.80;;
23802;SDS011;12082;51.786;6.018;2023-08-20T11:55:38;7.10;;;6.60;;
23802;SDS011;12082;51.786;6.018;2023-08-20T11:58:05;7.37;;;6.87;;
23802;SDS011;12082;51.786;6.018;2023-08-20T12:00:33;7.67;;;7.00;;
23802;SDS011;12082;51.786;6.018;2023-08-20T12:02:58;8.20;;;7.50;;
23802;SDS011;12082;51.786;6.018;2023-08-20T12:05:27;8.23;;;7.73;;
23802;SDS011;12082;51.786;6.018;2023-08-20T12:07:57;7.73;;;7.33;;
23802;SDS011;12082;51.786;6.018;2023-08-20T12:10:23;8.57;;;7.97;;
23802;SDS011;12082;51.786;6.018;2023-08-20T12:12:50;9.90;;;7.83;;
23802;SDS011;12082;51.786;6.018;2023-08-20T12:15:17;8.33;;;7.83;;
23802;SDS011;12082;51.786;6.018;2023-08-20T12:17:54;7.63;;;7.03;;
23802;SDS011;12082;51.786;6.018;2023-08-20T12:20:21;8.27;;;7.67;;
23802;SDS011;12082;51.786;6.018;2023-08-20T12:22:46;8.37;;;7.57;;
23802;SDS011;12082;51.786;6.018;2023-08-20T12:25:12;6.90;;;6.37;;
23802;SDS011;12082;51.786;6.018;2023-08-20T12:27:37;8.17;;;7.57;;
23802;SDS011;12082;51.786;6.018;2023-08-20T12:30:03;7.87;;;7.27;;
23802;SDS011;12082;51.786;6.018;2023-08-20T12:32:29;8.63;;;7.80;;
23802;SDS011;12082;51.786;6.018;2023-08-20T12:34:55;7.40;;;6.90;;
23802;SDS011;12082;51.786;6.018;2023-08-20T12:37:20;7.37;;;6.90;;
23802;SDS011;12082;51.786;6.018;2023-08-20T12:39:46;7.10;;;6.60;;
23802;SDS011;12082;51.786;6.018;2023-08-20T12:42:11;7.77;;;7.27;;
23802;SDS011;12082;51.786;6.018;2023-08-20T12:44:37;7.27;;;6.67;;
23802;SDS011;12082;51.786;6.018;2023-08-20T12:47:02;7.37;;;6.97;;
23802;SDS011;12082;51.786;6.018;2023-08-20T12:49:28;7.10;;;6.40;;
23802;SDS011;12082;51.786;6.018;2023-08-20T12:51:53;7.27;;;6.67;;
23802;SDS011;12082;51.786;6.018;2023-08-20T12:54:19;7.87;;;7.27;;
23802;SDS011;12082;51.786;6.018;2023-08-20T12:56:44;7.47;;;6.87;;
23802;SDS011;12082;51.786;6.018;2023-08-20T12:59:10;7.33;;;6.63;;
23802;SDS011;12082;51.786;6.018;2023-08-20T13:01:36;7.47;;;6.70;;
23802;SDS011;12082;51.786;6.018;2023-08-20T13:04:01;7.53;;;7.13;;
23802;SDS011;12082;51.786;6.018;2023-08-20T13:06:28;8.53;;;7.73;;
23802;SDS011;12082;51.786;6.018;2023-08-20T13:08:54;7.57;;;6.83;;
23802;SDS011;12082;51.786;6.018;2023-08-20T13:11:20;6.73;;;6.23;;
23802;SDS011;12082;51.786;6.018;2023-08-20T13:13:50;7.33;;;6.60;;
23802;SDS011;12082;51.786;6.018;2023-08-20T13:16:18;7.43;;;6.83;;
23802;SDS011;12082;51.786;6.018;2023-08-20T13:18:44;7.20;;;6.50;;
23802;SDS011;12082;51.786;6.018;2023-08-20T13:21:10;7.20;;;6.57;;
23802;SDS011;12082;51.786;6.018;2023-08-20T13:23:35;6.87;;;6.37;;
23802;SDS011;12082;51.786;6.018;2023-08-20T13:26:01;7.77;;;7.20;;
23802;SDS011;12082;51.786;6.018;2023-08-20T13:28:28;6.23;;;5.87;;
23802;SDS011;12082;51.786;6.018;2023-08-20T13:30:53;6.97;;;6.30;;
23802;SDS011;12082;51.786;6.018;2023-08-20T13:33:19;6.33;;;5.90;;
23802;SDS011;12082;51.786;6.018;2023-08-20T13:35:44;7.57;;;6.63;;
23802;SDS011;12082;51.786;6.018;2023-08-20T13:38:11;14.00;;;7.40;;
23802;SDS011;12082;51.786;6.018;2023-08-20T13:40:36;7.97;;;7.47;;
23802;SDS011;12082;51.786;6.018;2023-08-20T13:43:02;8.20;;;6.00;;
23802;SDS011;12082;51.786;6.018;2023-08-20T13:45:28;6.37;;;5.80;;
23802;SDS011;12082;51.786;6.018;2023-08-20T13:47:53;6.28;;;5.70;;
23802;SDS011;12082;51.786;6.018;2023-08-20T13:50:19;6.68;;;5.90;;
23802;SDS011;12082;51.786;6.018;2023-08-20T13:52:45;6.63;;;6.00;;
23802;SDS011;12082;51.786;6.018;2023-08-20T13:55:10;5.93;;;5.57;;
23802;SDS011;12082;51.786;6.018;2023-08-20T13:57:36;5.80;;;5.22;;
23802;SDS011;12082;51.786;6.018;2023-08-20T14:00:01;8.07;;;5.20;;
23802;SDS011;12082;51.786;6.018;2023-08-20T14:02:33;5.65;;;5.25;;
23802;SDS011;12082;51.786;6.018;2023-08-20T14:04:58;8.25;;;6.18;;
23802;SDS011;12082;51.786;6.018;2023-08-20T14:07:24;6.72;;;6.22;;
23802;SDS011;12082;51.786;6.018;2023-08-20T14:09:50;7.68;;;7.00;;
23802;SDS011;12082;51.786;6.018;2023-08-20T14:12:15;6.40;;;6.00;;
23802;SDS011;12082;51.786;6.018;2023-08-20T14:14:41;6.22;;;5.63;;
23802;SDS011;12082;51.786;6.018;2023-08-20T14:17:06;6.57;;;5.93;;
23802;SDS011;12082;51.786;6.018;2023-08-20T14:19:34;6.20;;;5.57;;
23802;SDS011;12082;51.786;6.018;2023-08-20T14:21:59;7.68;;;6.57;;
23802;SDS011;12082;51.786;6.018;2023-08-20T14:24:25;6.45;;;5.88;;
23802;SDS011;12082;51.786;6.018;2023-08-20T14:26:50;7.43;;;6.05;;
23802;SDS011;12082;51.786;6.018;2023-08-20T14:29:16;7.18;;;6.47;;
23802;SDS011;12082;51.786;6.018;2023-08-20T14:31:41;6.63;;;5.55;;
23802;SDS011;12082;51.786;6.018;2023-08-20T14:34:07;6.00;;;5.60;;
23802;SDS011;12082;51.786;6.018;2023-08-20T14:36:32;8.63;;;6.43;;
23802;SDS011;12082;51.786;6.018;2023-08-20T14:38:58;5.90;;;5.45;;